Terminal Aerodrome Forecast
Issued by NWS Knoxville/Tri Cities, TN

Current Version | Previous Version | Text Only | Print | Product List | Glossary On
Versions: 1 2 3 4 5 6 7 8 9 10 11 12 13 14 15 16 17 18 19 20 21 22 23 24 25 26 27 28 29 30 31 32 33
000
FTUS44 KMRX 271120
TAFTYS
TAF
KTYS 271120Z 2712/2812 14003KT P6SM SCT150
     FM271400 23006KT P6SM SCT040 BKN150
     FM271800 25005KT P6SM -TSRA BKN040CB
     FM280300 03005KT P6SM OVC050=

USA.gov is the U.S. government's official web portal to all federal, state and local government web resources and services.